sensor_id;sensor_type;location;lat;lon;timestamp;P1;durP1;ratioP1;P2;durP2;ratioP2
31692;SDS011;37436;53.230;6.614;2023-06-22T00:01:57;34.58;;;18.88;;
31692;SDS011;37436;53.230;6.614;2023-06-22T00:05:00;32.70;;;18.33;;
31692;SDS011;37436;53.230;6.614;2023-06-22T00:07:36;27.60;;;17.33;;
31692;SDS011;37436;53.230;6.614;2023-06-22T00:10:23;36.38;;;18.83;;
31692;SDS011;37436;53.230;6.614;2023-06-22T00:12:50;35.45;;;18.20;;
31692;SDS011;37436;53.230;6.614;2023-06-22T00:15:16;37.33;;;18.85;;
31692;SDS011;37436;53.230;6.614;2023-06-22T00:17:43;46.75;;;20.75;;
31692;SDS011;37436;53.230;6.614;2023-06-22T00:20:11;43.00;;;21.02;;
31692;SDS011;37436;53.230;6.614;2023-06-22T00:22:37;37.25;;;20.33;;
31692;SDS011;37436;53.230;6.614;2023-06-22T00:25:06;37.85;;;20.33;;
31692;SDS011;37436;53.230;6.614;2023-06-22T00:27:33;36.30;;;19.15;;
31692;SDS011;37436;53.230;6.614;2023-06-22T00:29:59;38.00;;;20.75;;
31692;SDS011;37436;53.230;6.614;2023-06-22T00:32:26;33.47;;;18.13;;
31692;SDS011;37436;53.230;6.614;2023-06-22T00:34:52;38.42;;;20.63;;
31692;SDS011;37436;53.230;6.614;2023-06-22T00:37:18;33.40;;;19.02;;
31692;SDS011;37436;53.230;6.614;2023-06-22T00:39:44;38.95;;;18.83;;
31692;SDS011;37436;53.230;6.614;2023-06-22T00:42:14;32.20;;;17.40;;
31692;SDS011;37436;53.230;6.614;2023-06-22T00:44:49;42.83;;;18.55;;
31692;SDS011;37436;53.230;6.614;2023-06-22T00:47:16;39.63;;;18.92;;
31692;SDS011;37436;53.230;6.614;2023-06-22T00:49:53;36.63;;;19.00;;
31692;SDS011;37436;53.230;6.614;2023-06-22T00:52:19;34.05;;;18.23;;
31692;SDS011;37436;53.230;6.614;2023-06-22T00:54:52;36.15;;;18.08;;
31692;SDS011;37436;53.230;6.614;2023-06-22T00:57:18;40.05;;;19.00;;
31692;SDS011;37436;53.230;6.614;2023-06-22T00:59:51;42.88;;;20.88;;
31692;SDS011;37436;53.230;6.614;2023-06-22T01:02:17;41.20;;;21.40;;
31692;SDS011;37436;53.230;6.614;2023-06-22T01:04:43;39.15;;;19.10;;
31692;SDS011;37436;53.230;6.614;2023-06-22T01:09:45;39.55;;;18.52;;
31692;SDS011;37436;53.230;6.614;2023-06-22T01:12:13;35.40;;;18.63;;
31692;SDS011;37436;53.230;6.614;2023-06-22T01:14:42;31.33;;;17.33;;
31692;SDS011;37436;53.230;6.614;2023-06-22T01:17:09;32.92;;;18.15;;
31692;SDS011;37436;53.230;6.614;2023-06-22T01:19:51;35.67;;;18.38;;
31692;SDS011;37436;53.230;6.614;2023-06-22T01:22:21;34.42;;;17.83;;
31692;SDS011;37436;53.230;6.614;2023-06-22T01:30:06;34.38;;;20.02;;
31692;SDS011;37436;53.230;6.614;2023-06-22T01:32:42;47.13;;;21.73;;
31692;SDS011;37436;53.230;6.614;2023-06-22T01:35:14;45.60;;;25.20;;
31692;SDS011;37436;53.230;6.614;2023-06-22T01:37:41;49.65;;;24.00;;
31692;SDS011;37436;53.230;6.614;2023-06-22T01:40:27;46.00;;;24.52;;
31692;SDS011;37436;53.230;6.614;2023-06-22T01:43:01;46.53;;;27.15;;
31692;SDS011;37436;53.230;6.614;2023-06-22T01:45:35;52.20;;;26.75;;
31692;SDS011;37436;53.230;6.614;2023-06-22T01:48:02;48.13;;;24.75;;
31692;SDS011;37436;53.230;6.614;2023-06-22T01:50:45;47.85;;;27.33;;
31692;SDS011;37436;53.230;6.614;2023-06-22T01:53:13;47.65;;;25.80;;
31692;SDS011;37436;53.230;6.614;2023-06-22T01:55:50;44.90;;;25.67;;
31692;SDS011;37436;53.230;6.614;2023-06-22T01:58:26;45.90;;;23.98;;
31692;SDS011;37436;53.230;6.614;2023-06-22T02:03:30;48.38;;;25.75;;
31692;SDS011;37436;53.230;6.614;2023-06-22T02:06:07;57.28;;;29.15;;
31692;SDS011;37436;53.230;6.614;2023-06-22T02:08:40;54.85;;;27.90;;
31692;SDS011;37436;53.230;6.614;2023-06-22T02:11:08;52.53;;;27.60;;
31692;SDS011;37436;53.230;6.614;2023-06-22T02:13:39;54.53;;;26.85;;
31692;SDS011;37436;53.230;6.614;2023-06-22T02:16:11;51.45;;;27.88;;
31692;SDS011;37436;53.230;6.614;2023-06-22T02:24:38;59.17;;;27.00;;
31692;SDS011;37436;53.230;6.614;2023-06-22T02:27:32;51.00;;;25.75;;
31692;SDS011;37436;53.230;6.614;2023-06-22T02:29:59;53.95;;;27.95;;
31692;SDS011;37436;53.230;6.614;2023-06-22T02:32:37;55.28;;;27.60;;
31692;SDS011;37436;53.230;6.614;2023-06-22T02:35:06;54.42;;;28.42;;
31692;SDS011;37436;53.230;6.614;2023-06-22T02:37:34;51.83;;;28.73;;
31692;SDS011;37436;53.230;6.614;2023-06-22T02:40:06;53.58;;;28.83;;
31692;SDS011;37436;53.230;6.614;2023-06-22T02:42:41;55.78;;;28.10;;
31692;SDS011;37436;53.230;6.614;2023-06-22T02:45:14;64.97;;;29.52;;
31692;SDS011;37436;53.230;6.614;2023-06-22T02:48:04;55.38;;;28.55;;
31692;SDS011;37436;53.230;6.614;2023-06-22T02:50:33;62.38;;;29.92;;
31692;SDS011;37436;53.230;6.614;2023-06-22T02:53:15;62.00;;;30.52;;
31692;SDS011;37436;53.230;6.614;2023-06-22T02:55:43;56.80;;;27.67;;
31692;SDS011;37436;53.230;6.614;2023-06-22T02:58:13;58.50;;;28.02;;
31692;SDS011;37436;53.230;6.614;2023-06-22T03:00:42;59.58;;;29.30;;
31692;SDS011;37436;53.230;6.614;2023-06-22T03:03:10;64.50;;;29.83;;
31692;SDS011;37436;53.230;6.614;2023-06-22T03:05:46;71.65;;;30.02;;
31692;SDS011;37436;53.230;6.614;2023-06-22T03:08:27;70.05;;;31.48;;
31692;SDS011;37436;53.230;6.614;2023-06-22T03:11:29;65.10;;;28.88;;
31692;SDS011;37436;53.230;6.614;2023-06-22T03:13:58;76.70;;;31.23;;
31692;SDS011;37436;53.230;6.614;2023-06-22T03:16:26;59.55;;;29.08;;
31692;SDS011;37436;53.230;6.614;2023-06-22T03:19:02;66.78;;;29.90;;
31692;SDS011;37436;53.230;6.614;2023-06-22T03:21:29;64.03;;;29.83;;
31692;SDS011;37436;53.230;6.614;2023-06-22T03:23:59;63.45;;;30.35;;
31692;SDS011;37436;53.230;6.614;2023-06-22T03:26:28;63.70;;;29.83;;
31692;SDS011;37436;53.230;6.614;2023-06-22T03:28:55;59.65;;;28.92;;
31692;SDS011;37436;53.230;6.614;2023-06-22T03:31:21;62.38;;;28.88;;
31692;SDS011;37436;53.230;6.614;2023-06-22T03:33:48;61.35;;;29.52;;
31692;SDS011;37436;53.230;6.614;2023-06-22T03:36:18;65.03;;;29.80;;
31692;SDS011;37436;53.230;6.614;2023-06-22T03:41:32;64.18;;;30.33;;
31692;SDS011;37436;53.230;6.614;2023-06-22T03:44:04;71.22;;;31.33;;
31692;SDS011;37436;53.230;6.614;2023-06-22T03:46:40;65.68;;;33.15;;
31692;SDS011;37436;53.230;6.614;2023-06-22T03:49:10;75.20;;;32.30;;
31692;SDS011;37436;53.230;6.614;2023-06-22T03:51:37;68.35;;;30.80;;
31692;SDS011;37436;53.230;6.614;2023-06-22T03:54:08;74.55;;;33.17;;
31692;SDS011;37436;53.230;6.614;2023-06-22T03:56:58;66.40;;;31.60;;
31692;SDS011;37436;53.230;6.614;2023-06-22T03:59:28;72.43;;;30.88;;
31692;SDS011;37436;53.230;6.614;2023-06-22T04:01:55;77.68;;;33.83;;
31692;SDS011;37436;53.230;6.614;2023-06-22T04:04:31;65.10;;;32.92;;
31692;SDS011;37436;53.230;6.614;2023-06-22T04:07:09;69.45;;;34.47;;
31692;SDS011;37436;53.230;6.614;2023-06-22T04:09:39;70.57;;;34.15;;
31692;SDS011;37436;53.230;6.614;2023-06-22T04:12:17;70.43;;;33.47;;
31692;SDS011;37436;53.230;6.614;2023-06-22T04:14:45;78.35;;;33.38;;
31692;SDS011;37436;53.230;6.614;2023-06-22T04:17:14;72.35;;;34.65;;
31692;SDS011;37436;53.230;6.614;2023-06-22T04:19:44;66.13;;;32.70;;
31692;SDS011;37436;53.230;6.614;2023-06-22T04:22:11;63.55;;;33.92;;
31692;SDS011;37436;53.230;6.614;2023-06-22T04:24:37;71.90;;;33.63;;
31692;SDS011;37436;53.230;6.614;2023-06-22T04:30:15;80.90;;;37.13;;
31692;SDS011;37436;53.230;6.614;2023-06-22T04:32:44;77.18;;;36.50;;
31692;SDS011;37436;53.230;6.614;2023-06-22T04:35:32;70.88;;;35.72;;
31692;SDS011;37436;53.230;6.614;2023-06-22T04:37:58;76.50;;;36.80;;
31692;SDS011;37436;53.230;6.614;2023-06-22T04:40:31;69.40;;;34.15;;
31692;SDS011;37436;53.230;6.614;2023-06-22T04:43:06;80.57;;;39.97;;
31692;SDS011;37436;53.230;6.614;2023-06-22T04:45:32;74.97;;;36.35;;
31692;SDS011;37436;53.230;6.614;2023-06-22T04:48:09;70.20;;;36.92;;
31692;SDS011;37436;53.230;6.614;2023-06-22T04:50:45;78.55;;;37.30;;
31692;SDS011;37436;53.230;6.614;2023-06-22T04:53:17;75.28;;;37.28;;
31692;SDS011;37436;53.230;6.614;2023-06-22T04:55:47;64.35;;;35.50;;
31692;SDS011;37436;53.230;6.614;2023-06-22T04:58:14;75.15;;;37.78;;
31692;SDS011;37436;53.230;6.614;2023-06-22T05:01:06;69.65;;;36.83;;
31692;SDS011;37436;53.230;6.614;2023-06-22T05:03:34;67.28;;;34.95;;
31692;SDS011;37436;53.230;6.614;2023-06-22T05:06:11;65.38;;;34.53;;
31692;SDS011;37436;53.230;6.614;2023-06-22T05:08:39;60.30;;;31.65;;
31692;SDS011;37436;53.230;6.614;2023-06-22T05:11:08;54.88;;;29.92;;
31692;SDS011;37436;53.230;6.614;2023-06-22T05:13:34;55.22;;;30.30;;
31692;SDS011;37436;53.230;6.614;2023-06-22T05:16:03;47.83;;;27.70;;
31692;SDS011;37436;53.230;6.614;2023-06-22T05:18:31;42.58;;;26.77;;
31692;SDS011;37436;53.230;6.614;2023-06-22T05:20:58;44.58;;;26.23;;
31692;SDS011;37436;53.230;6.614;2023-06-22T05:23:25;47.22;;;27.35;;
31692;SDS011;37436;53.230;6.614;2023-06-22T05:25:51;49.22;;;27.50;;
31692;SDS011;37436;53.230;6.614;2023-06-22T05:28:17;39.83;;;24.95;;
31692;SDS011;37436;53.230;6.614;2023-06-22T05:30:47;42.70;;;25.50;;
31692;SDS011;37436;53.230;6.614;2023-06-22T05:33:13;39.15;;;23.88;;
31692;SDS011;37436;53.230;6.614;2023-06-22T05:35:39;41.45;;;23.67;;
31692;SDS011;37436;53.230;6.614;2023-06-22T05:38:13;37.65;;;25.00;;
31692;SDS011;37436;53.230;6.614;2023-06-22T05:40:39;38.30;;;23.30;;
31692;SDS011;37436;53.230;6.614;2023-06-22T05:43:05;45.03;;;24.75;;
31692;SDS011;37436;53.230;6.614;2023-06-22T05:45:41;38.33;;;23.25;;
31692;SDS011;37436;53.230;6.614;2023-06-22T05:48:07;34.17;;;20.48;;
31692;SDS011;37436;53.230;6.614;2023-06-22T05:50:33;32.25;;;21.75;;
31692;SDS011;37436;53.230;6.614;2023-06-22T05:52:59;34.60;;;22.33;;
31692;SDS011;37436;53.230;6.614;2023-06-22T05:55:28;38.05;;;23.10;;
31692;SDS011;37436;53.230;6.614;2023-06-22T05:57:58;37.90;;;22.15;;
31692;SDS011;37436;53.230;6.614;2023-06-22T06:00:24;34.72;;;20.80;;
31692;SDS011;37436;53.230;6.614;2023-06-22T06:02:50;35.00;;;20.63;;
31692;SDS011;37436;53.230;6.614;2023-06-22T06:05:16;28.95;;;20.60;;
31692;SDS011;37436;53.230;6.614;2023-06-22T06:07:44;30.48;;;19.83;;
31692;SDS011;37436;53.230;6.614;2023-06-22T06:10:10;37.35;;;22.00;;
31692;SDS011;37436;53.230;6.614;2023-06-22T06:12:37;33.80;;;21.55;;
31692;SDS011;37436;53.230;6.614;2023-06-22T06:15:04;33.20;;;20.33;;
31692;SDS011;37436;53.230;6.614;2023-06-22T06:17:30;31.20;;;19.90;;
31692;SDS011;37436;53.230;6.614;2023-06-22T06:19:59;34.40;;;19.95;;
31692;SDS011;37436;53.230;6.614;2023-06-22T06:22:26;27.58;;;18.60;;
31692;SDS011;37436;53.230;6.614;2023-06-22T06:24:52;27.95;;;18.05;;
31692;SDS011;37436;53.230;6.614;2023-06-22T06:27:18;26.77;;;19.48;;
31692;SDS011;37436;53.230;6.614;2023-06-22T06:29:57;29.02;;;17.92;;
31692;SDS011;37436;53.230;6.614;2023-06-22T06:32:23;27.60;;;17.65;;
31692;SDS011;37436;53.230;6.614;2023-06-22T06:34:50;30.35;;;17.95;;
31692;SDS011;37436;53.230;6.614;2023-06-22T06:37:16;28.23;;;16.95;;
31692;SDS011;37436;53.230;6.614;2023-06-22T06:39:46;23.08;;;15.60;;
31692;SDS011;37436;53.230;6.614;2023-06-22T06:42:12;25.23;;;17.00;;
31692;SDS011;37436;53.230;6.614;2023-06-22T06:44:39;30.45;;;16.48;;
31692;SDS011;37436;53.230;6.614;2023-06-22T06:47:12;21.75;;;14.65;;
31692;SDS011;37436;53.230;6.614;2023-06-22T06:49:38;23.17;;;14.85;;
31692;SDS011;37436;53.230;6.614;2023-06-22T06:52:05;25.60;;;15.82;;
31692;SDS011;37436;53.230;6.614;2023-06-22T06:54:31;24.58;;;13.85;;
31692;SDS011;37436;53.230;6.614;2023-06-22T06:56:57;20.95;;;13.88;;
31692;SDS011;37436;53.230;6.614;2023-06-22T06:59:29;20.02;;;13.48;;
31692;SDS011;37436;53.230;6.614;2023-06-22T07:01:55;22.00;;;14.00;;
31692;SDS011;37436;53.230;6.614;2023-06-22T07:04:31;22.90;;;14.65;;
31692;SDS011;37436;53.230;6.614;2023-06-22T07:06:58;21.58;;;13.18;;
31692;SDS011;37436;53.230;6.614;2023-06-22T07:09:25;21.58;;;13.55;;
31692;SDS011;37436;53.230;6.614;2023-06-22T07:11:51;20.50;;;13.02;;
31692;SDS011;37436;53.230;6.614;2023-06-22T07:14:17;19.85;;;13.48;;
31692;SDS011;37436;53.230;6.614;2023-06-22T07:16:44;22.15;;;13.93;;
31692;SDS011;37436;53.230;6.614;2023-06-22T07:19:13;20.63;;;13.43;;
31692;SDS011;37436;53.230;6.614;2023-06-22T07:21:41;20.70;;;14.75;;
31692;SDS011;37436;53.230;6.614;2023-06-22T07:24:10;21.85;;;13.85;;
31692;SDS011;37436;53.230;6.614;2023-06-22T07:26:36;21.33;;;13.77;;
31692;SDS011;37436;53.230;6.614;2023-06-22T07:29:02;18.67;;;13.63;;
31692;SDS011;37436;53.230;6.614;2023-06-22T07:31:29;21.80;;;12.10;;
31692;SDS011;37436;53.230;6.614;2023-06-22T07:33:56;23.77;;;13.35;;
31692;SDS011;37436;53.230;6.614;2023-06-22T07:36:22;20.73;;;12.35;;
31692;SDS011;37436;53.230;6.614;2023-06-22T07:38:48;15.75;;;11.27;;
31692;SDS011;37436;53.230;6.614;2023-06-22T07:41:14;18.65;;;11.82;;
31692;SDS011;37436;53.230;6.614;2023-06-22T07:43:48;15.88;;;10.45;;
31692;SDS011;37436;53.230;6.614;2023-06-22T07:46:15;16.75;;;11.02;;
31692;SDS011;37436;53.230;6.614;2023-06-22T07:48:42;14.25;;;8.90;;
31692;SDS011;37436;53.230;6.614;2023-06-22T07:51:12;16.33;;;9.75;;
31692;SDS011;37436;53.230;6.614;2023-06-22T07:53:43;16.98;;;11.00;;
31692;SDS011;37436;53.230;6.614;2023-06-22T07:56:10;14.52;;;9.27;;
31692;SDS011;37436;53.230;6.614;2023-06-22T07:58:36;13.02;;;8.75;;
31692;SDS011;37436;53.230;6.614;2023-06-22T08:01:02;12.77;;;9.43;;
31692;SDS011;37436;53.230;6.614;2023-06-22T08:03:29;14.48;;;9.05;;
31692;SDS011;37436;53.230;6.614;2023-06-22T08:05:56;11.63;;;8.00;;
31692;SDS011;37436;53.230;6.614;2023-06-22T08:08:33;12.60;;;9.05;;
31692;SDS011;37436;53.230;6.614;2023-06-22T08:10:59;15.02;;;8.75;;
31692;SDS011;37436;53.230;6.614;2023-06-22T08:13:29;11.32;;;7.03;;
31692;SDS011;37436;53.230;6.614;2023-06-22T08:15:56;8.32;;;5.47;;
31692;SDS011;37436;53.230;6.614;2023-06-22T08:18:22;11.35;;;7.30;;
31692;SDS011;37436;53.230;6.614;2023-06-22T08:20:51;17.65;;;8.10;;
31692;SDS011;37436;53.230;6.614;2023-06-22T08:23:18;11.13;;;6.88;;
31692;SDS011;37436;53.230;6.614;2023-06-22T08:25:45;9.38;;;7.43;;
31692;SDS011;37436;53.230;6.614;2023-06-22T08:28:24;10.45;;;6.40;;
31692;SDS011;37436;53.230;6.614;2023-06-22T08:30:50;8.80;;;5.20;;
31692;SDS011;37436;53.230;6.614;2023-06-22T08:33:17;13.52;;;6.80;;
31692;SDS011;37436;53.230;6.614;2023-06-22T08:36:03;9.00;;;6.35;;
31692;SDS011;37436;53.230;6.614;2023-06-22T08:38:32;8.27;;;6.18;;
31692;SDS011;37436;53.230;6.614;2023-06-22T08:40:59;9.25;;;5.07;;
31692;SDS011;37436;53.230;6.614;2023-06-22T08:43:26;7.78;;;5.25;;
31692;SDS011;37436;53.230;6.614;2023-06-22T08:46:02;11.35;;;6.35;;
31692;SDS011;37436;53.230;6.614;2023-06-22T08:48:28;11.68;;;6.45;;
31692;SDS011;37436;53.230;6.614;2023-06-22T08:50:54;13.20;;;8.35;;
31692;SDS011;37436;53.230;6.614;2023-06-22T08:53:23;11.60;;;7.50;;
31692;SDS011;37436;53.230;6.614;2023-06-22T08:56:01;11.57;;;6.72;;
31692;SDS011;37436;53.230;6.614;2023-06-22T08:58:58;9.88;;;5.47;;
31692;SDS011;37436;53.230;6.614;2023-06-22T09:01:25;8.93;;;6.25;;
31692;SDS011;37436;53.230;6.614;2023-06-22T09:04:03;11.98;;;7.32;;
31692;SDS011;37436;53.230;6.614;2023-06-22T09:07:06;11.52;;;7.47;;
31692;SDS011;37436;53.230;6.614;2023-06-22T09:12:39;10.90;;;7.55;;
31692;SDS011;37436;53.230;6.614;2023-06-22T09:15:15;12.60;;;8.35;;
31692;SDS011;37436;53.230;6.614;2023-06-22T09:17:41;15.90;;;6.50;;
31692;SDS011;37436;53.230;6.614;2023-06-22T09:20:07;10.25;;;6.53;;
31692;SDS011;37436;53.230;6.614;2023-06-22T09:22:35;10.45;;;6.60;;
31692;SDS011;37436;53.230;6.614;2023-06-22T09:25:07;9.50;;;5.93;;
31692;SDS011;37436;53.230;6.614;2023-06-22T09:27:44;9.57;;;6.93;;
31692;SDS011;37436;53.230;6.614;2023-06-22T09:30:13;11.07;;;6.18;;
31692;SDS011;37436;53.230;6.614;2023-06-22T09:32:44;10.52;;;6.38;;
31692;SDS011;37436;53.230;6.614;2023-06-22T09:35:11;12.32;;;6.18;;
31692;SDS011;37436;53.230;6.614;2023-06-22T09:37:38;12.30;;;6.22;;
31692;SDS011;37436;53.230;6.614;2023-06-22T09:43:13;9.77;;;6.85;;
31692;SDS011;37436;53.230;6.614;2023-06-22T09:45:40;10.80;;;5.75;;
31692;SDS011;37436;53.230;6.614;2023-06-22T09:48:07;10.98;;;7.55;;
31692;SDS011;37436;53.230;6.614;2023-06-22T09:50:55;13.52;;;7.25;;
31692;SDS011;37436;53.230;6.614;2023-06-22T09:53:21;7.90;;;6.18;;
31692;SDS011;37436;53.230;6.614;2023-06-22T09:55:47;11.85;;;6.07;;
31692;SDS011;37436;53.230;6.614;2023-06-22T09:58:31;12.18;;;6.88;;
31692;SDS011;37436;53.230;6.614;2023-06-22T10:00:59;8.93;;;6.78;;
31692;SDS011;37436;53.230;6.614;2023-06-22T10:03:28;7.80;;;5.55;;
31692;SDS011;37436;53.230;6.614;2023-06-22T10:05:56;8.95;;;6.20;;
31692;SDS011;37436;53.230;6.614;2023-06-22T10:08:24;8.20;;;5.57;;
31692;SDS011;37436;53.230;6.614;2023-06-22T10:10:51;8.68;;;6.47;;
31692;SDS011;37436;53.230;6.614;2023-06-22T10:13:20;6.47;;;5.10;;
31692;SDS011;37436;53.230;6.614;2023-06-22T10:16:29;10.40;;;6.90;;
31692;SDS011;37436;53.230;6.614;2023-06-22T10:21:27;9.43;;;6.22;;
31692;SDS011;37436;53.230;6.614;2023-06-22T10:23:55;7.82;;;5.88;;
31692;SDS011;37436;53.230;6.614;2023-06-22T10:26:24;9.27;;;6.32;;
31692;SDS011;37436;53.230;6.614;2023-06-22T10:29:01;8.63;;;6.30;;
31692;SDS011;37436;53.230;6.614;2023-06-22T10:31:30;8.07;;;6.05;;
31692;SDS011;37436;53.230;6.614;2023-06-22T10:33:56;12.65;;;6.45;;
31692;SDS011;37436;53.230;6.614;2023-06-22T10:36:49;8.75;;;6.00;;
31692;SDS011;37436;53.230;6.614;2023-06-22T10:39:15;8.73;;;5.97;;
31692;SDS011;37436;53.230;6.614;2023-06-22T10:41:41;8.88;;;5.68;;
31692;SDS011;37436;53.230;6.614;2023-06-22T10:44:07;10.60;;;5.78;;
31692;SDS011;37436;53.230;6.614;2023-06-22T10:46:33;13.18;;;6.72;;
31692;SDS011;37436;53.230;6.614;2023-06-22T10:49:00;7.68;;;6.30;;
31692;SDS011;37436;53.230;6.614;2023-06-22T10:51:26;8.32;;;6.03;;
31692;SDS011;37436;53.230;6.614;2023-06-22T10:53:53;8.20;;;5.72;;
31692;SDS011;37436;53.230;6.614;2023-06-22T10:56:19;9.52;;;6.82;;
31692;SDS011;37436;53.230;6.614;2023-06-22T10:58:45;8.85;;;6.63;;
31692;SDS011;37436;53.230;6.614;2023-06-22T11:01:12;8.70;;;6.20;;
31692;SDS011;37436;53.230;6.614;2023-06-22T11:03:38;7.55;;;6.22;;
31692;SDS011;37436;53.230;6.614;2023-06-22T11:06:06;9.90;;;6.07;;
31692;SDS011;37436;53.230;6.614;2023-06-22T11:08:35;8.75;;;5.35;;
31692;SDS011;37436;53.230;6.614;2023-06-22T11:11:01;8.60;;;5.70;;
31692;SDS011;37436;53.230;6.614;2023-06-22T11:13:28;10.30;;;6.13;;
31692;SDS011;37436;53.230;6.614;2023-06-22T11:15:54;9.57;;;5.93;;
31692;SDS011;37436;53.230;6.614;2023-06-22T11:18:20;7.60;;;5.65;;
31692;SDS011;37436;53.230;6.614;2023-06-22T11:20:51;10.00;;;5.53;;
31692;SDS011;37436;53.230;6.614;2023-06-22T11:23:18;6.90;;;5.30;;
31692;SDS011;37436;53.230;6.614;2023-06-22T11:25:44;8.75;;;6.47;;
31692;SDS011;37436;53.230;6.614;2023-06-22T11:28:14;8.88;;;5.93;;
31692;SDS011;37436;53.230;6.614;2023-06-22T11:30:40;8.77;;;5.50;;
31692;SDS011;37436;53.230;6.614;2023-06-22T11:33:12;13.73;;;5.95;;
31692;SDS011;37436;53.230;6.614;2023-06-22T11:35:42;9.95;;;6.38;;
31692;SDS011;37436;53.230;6.614;2023-06-22T11:38:09;8.73;;;5.30;;
31692;SDS011;37436;53.230;6.614;2023-06-22T11:40:35;9.13;;;5.55;;
31692;SDS011;37436;53.230;6.614;2023-06-22T11:43:05;16.90;;;6.18;;
31692;SDS011;37436;53.230;6.614;2023-06-22T11:45:31;6.90;;;5.07;;
31692;SDS011;37436;53.230;6.614;2023-06-22T11:47:57;7.05;;;5.25;;
31692;SDS011;37436;53.230;6.614;2023-06-22T11:50:23;8.05;;;5.07;;
31692;SDS011;37436;53.230;6.614;2023-06-22T11:52:55;6.75;;;5.18;;
31692;SDS011;37436;53.230;6.614;2023-06-22T11:55:23;6.00;;;5.05;;
31692;SDS011;37436;53.230;6.614;2023-06-22T11:58:10;6.95;;;4.88;;
31692;SDS011;37436;53.230;6.614;2023-06-22T12:00:36;11.43;;;4.55;;
31692;SDS011;37436;53.230;6.614;2023-06-22T12:03:03;6.65;;;4.80;;
31692;SDS011;37436;53.230;6.614;2023-06-22T12:05:29;8.88;;;5.05;;
31692;SDS011;37436;53.230;6.614;2023-06-22T12:07:56;9.48;;;3.97;;
31692;SDS011;37436;53.230;6.614;2023-06-22T12:10:24;6.47;;;5.07;;
31692;SDS011;37436;53.230;6.614;2023-06-22T12:12:55;6.45;;;4.38;;
31692;SDS011;37436;53.230;6.614;2023-06-22T12:15:23;7.97;;;5.22;;
31692;SDS011;37436;53.230;6.614;2023-06-22T12:17:49;7.90;;;5.07;;
31692;SDS011;37436;53.230;6.614;2023-06-22T12:20:17;7.35;;;5.00;;
31692;SDS011;37436;53.230;6.614;2023-06-22T12:22:43;9.18;;;5.45;;
31692;SDS011;37436;53.230;6.614;2023-06-22T12:27:49;8.77;;;4.85;;
31692;SDS011;37436;53.230;6.614;2023-06-22T12:30:23;8.27;;;5.40;;
31692;SDS011;37436;53.230;6.614;2023-06-22T12:32:49;10.50;;;5.63;;
31692;SDS011;37436;53.230;6.614;2023-06-22T12:35:23;7.10;;;4.80;;
31692;SDS011;37436;53.230;6.614;2023-06-22T12:37:49;8.00;;;4.63;;
31692;SDS011;37436;53.230;6.614;2023-06-22T12:40:15;11.57;;;5.80;;
31692;SDS011;37436;53.230;6.614;2023-06-22T12:42:45;9.63;;;5.40;;
31692;SDS011;37436;53.230;6.614;2023-06-22T12:45:15;7.45;;;5.03;;
31692;SDS011;37436;53.230;6.614;2023-06-22T12:47:42;7.35;;;4.00;;
31692;SDS011;37436;53.230;6.614;2023-06-22T12:50:18;8.70;;;5.60;;
31692;SDS011;37436;53.230;6.614;2023-06-22T12:52:44;7.57;;;4.82;;
31692;SDS011;37436;53.230;6.614;2023-06-22T12:55:11;6.38;;;4.70;;
31692;SDS011;37436;53.230;6.614;2023-06-22T12:57:38;6.57;;;5.00;;
31692;SDS011;37436;53.230;6.614;2023-06-22T13:00:04;9.18;;;5.07;;
31692;SDS011;37436;53.230;6.614;2023-06-22T13:02:35;7.32;;;4.72;;
31692;SDS011;37436;53.230;6.614;2023-06-22T13:05:04;7.93;;;4.75;;
31692;SDS011;37436;53.230;6.614;2023-06-22T13:07:31;7.05;;;5.10;;
31692;SDS011;37436;53.230;6.614;2023-06-22T13:09:57;7.35;;;4.43;;
31692;SDS011;37436;53.230;6.614;2023-06-22T13:12:23;10.35;;;4.78;;
31692;SDS011;37436;53.230;6.614;2023-06-22T13:14:55;7.18;;;4.60;;
31692;SDS011;37436;53.230;6.614;2023-06-22T13:17:23;6.65;;;4.15;;
31692;SDS011;37436;53.230;6.614;2023-06-22T13:19:49;7.40;;;4.32;;
31692;SDS011;37436;53.230;6.614;2023-06-22T13:24:55;11.80;;;3.47;;
31692;SDS011;37436;53.230;6.614;2023-06-22T13:27:30;7.03;;;3.88;;
31692;SDS011;37436;53.230;6.614;2023-06-22T13:29:59;6.07;;;3.88;;
31692;SDS011;37436;53.230;6.614;2023-06-22T13:32:28;5.47;;;4.00;;
31692;SDS011;37436;53.230;6.614;2023-06-22T13:34:55;7.78;;;4.43;;
31692;SDS011;37436;53.230;6.614;2023-06-22T13:37:21;6.00;;;4.20;;
31692;SDS011;37436;53.230;6.614;2023-06-22T13:39:47;6.18;;;3.95;;
31692;SDS011;37436;53.230;6.614;2023-06-22T13:42:14;5.60;;;3.90;;
31692;SDS011;37436;53.230;6.614;2023-06-22T13:44:41;6.68;;;4.10;;
31692;SDS011;37436;53.230;6.614;2023-06-22T13:47:07;5.82;;;3.00;;
31692;SDS011;37436;53.230;6.614;2023-06-22T13:49:34;5.45;;;3.42;;
31692;SDS011;37436;53.230;6.614;2023-06-22T13:52:00;8.02;;;4.07;;
31692;SDS011;37436;53.230;6.614;2023-06-22T13:54:31;5.70;;;3.50;;
31692;SDS011;37436;53.230;6.614;2023-06-22T13:56:58;9.60;;;3.63;;
31692;SDS011;37436;53.230;6.614;2023-06-22T13:59:24;4.22;;;3.20;;
31692;SDS011;37436;53.230;6.614;2023-06-22T14:01:51;7.50;;;3.00;;
31692;SDS011;37436;53.230;6.614;2023-06-22T14:04:17;3.90;;;2.67;;
31692;SDS011;37436;53.230;6.614;2023-06-22T14:06:44;7.55;;;2.85;;
31692;SDS011;37436;53.230;6.614;2023-06-22T14:09:11;4.65;;;2.70;;
31692;SDS011;37436;53.230;6.614;2023-06-22T14:11:37;5.03;;;2.60;;
31692;SDS011;37436;53.230;6.614;2023-06-22T14:14:03;5.55;;;2.85;;
31692;SDS011;37436;53.230;6.614;2023-06-22T14:19:29;5.00;;;2.63;;
31692;SDS011;37436;53.230;6.614;2023-06-22T14:22:06;3.70;;;2.58;;
31692;SDS011;37436;53.230;6.614;2023-06-22T14:24:32;3.97;;;2.45;;
31692;SDS011;37436;53.230;6.614;2023-06-22T14:26:59;2.78;;;2.05;;
31692;SDS011;37436;53.230;6.614;2023-06-22T14:29:27;2.65;;;2.08;;
31692;SDS011;37436;53.230;6.614;2023-06-22T14:31:56;3.25;;;1.90;;
31692;SDS011;37436;53.230;6.614;2023-06-22T14:34:41;6.20;;;2.00;;
31692;SDS011;37436;53.230;6.614;2023-06-22T14:37:08;3.90;;;2.30;;
31692;SDS011;37436;53.230;6.614;2023-06-22T14:39:50;3.88;;;2.08;;
31692;SDS011;37436;53.230;6.614;2023-06-22T14:42:16;3.00;;;2.00;;
31692;SDS011;37436;53.230;6.614;2023-06-22T14:44:42;7.68;;;2.95;;
31692;SDS011;37436;53.230;6.614;2023-06-22T14:47:09;4.38;;;1.90;;
31692;SDS011;37436;53.230;6.614;2023-06-22T14:49:36;7.68;;;4.43;;
31692;SDS011;37436;53.230;6.614;2023-06-22T14:52:02;4.63;;;2.00;;
31692;SDS011;37436;53.230;6.614;2023-06-22T14:54:35;3.25;;;1.85;;
31692;SDS011;37436;53.230;6.614;2023-06-22T14:57:02;6.50;;;1.92;;
31692;SDS011;37436;53.230;6.614;2023-06-22T14:59:49;4.00;;;2.28;;
31692;SDS011;37436;53.230;6.614;2023-06-22T15:02:16;4.90;;;2.03;;
31692;SDS011;37436;53.230;6.614;2023-06-22T15:04:43;5.80;;;2.90;;
31692;SDS011;37436;53.230;6.614;2023-06-22T15:07:09;4.18;;;1.98;;
31692;SDS011;37436;53.230;6.614;2023-06-22T15:09:45;5.47;;;2.40;;
31692;SDS011;37436;53.230;6.614;2023-06-22T15:12:11;2.88;;;1.95;;
31692;SDS011;37436;53.230;6.614;2023-06-22T15:14:41;9.65;;;2.05;;
31692;SDS011;37436;53.230;6.614;2023-06-22T15:17:08;6.53;;;1.98;;
31692;SDS011;37436;53.230;6.614;2023-06-22T15:19:38;3.25;;;1.67;;
31692;SDS011;37436;53.230;6.614;2023-06-22T15:22:09;4.47;;;1.98;;
31692;SDS011;37436;53.230;6.614;2023-06-22T15:24:35;4.55;;;1.88;;
31692;SDS011;37436;53.230;6.614;2023-06-22T15:27:01;3.75;;;1.95;;
31692;SDS011;37436;53.230;6.614;2023-06-22T15:29:28;3.28;;;1.35;;